Time;durP1;ratioP1;P1;durP2;ratioP2;P2;SDS_P1;SDS_P2;PMS_P1;PMS_P2;Temp;Humidity;BMP_temperature;BMP_pressure;BME280_temperature;BME280_humidity;BME280_pressure;Samples;Min_cycle;Max_cycle;Signal;HPM_P1;HPM_P2
2022/11/29 00:01:18;;;;;;;16.77;10.38;;;;;;;;;;5030506;28;20029;-75
2022/11/29 00:03:44;;;;;;;15.82;9.90;;;;;;;;;;5030650;28;20116;-76
2022/11/29 00:06:12;;;;;;;17.73;9.60;;;;;;;;;;5033393;28;20029;-74
2022/11/29 00:08:40;;;;;;;16.27;9.70;;;;;;;;;;5034394;28;20562;-76
2022/11/29 00:11:08;;;;;;;17.88;10.55;;;;;;;;;;5033912;28;20441;-75
2022/11/29 00:13:34;;;;;;;16.92;10.13;;;;;;;;;;5028911;28;20410;-72
2022/11/29 00:16:05;;;;;;;15.00;9.18;;;;;;;;;;5019409;28;20036;-73
2022/11/29 00:18:32;;;;;;;15.45;9.60;;;;;;;;;;5051551;28;20029;-75
2022/11/29 00:20:58;;;;;;;15.65;10.15;;;;;;;;;;5017176;28;20525;-74
2022/11/29 00:23:24;;;;;;;15.23;9.27;;;;;;;;;;5022234;28;20112;-74
2022/11/29 00:25:51;;;;;;;13.80;8.95;;;;;;;;;;5023244;28;20064;-74
2022/11/29 00:28:17;;;;;;;13.20;8.07;;;;;;;;;;5019051;28;20108;-76
2022/11/29 00:30:42;;;;;;;10.52;7.45;;;;;;;;;;5023647;28;20041;-75
2022/11/29 00:33:08;;;;;;;11.02;7.60;;;;;;;;;;5019886;28;20061;-75
2022/11/29 00:35:34;;;;;;;12.52;7.68;;;;;;;;;;5024234;28;20479;-73
2022/11/29 00:38:00;;;;;;;11.93;8.20;;;;;;;;;;5025484;28;20022;-75
2022/11/29 00:40:26;;;;;;;14.95;8.13;;;;;;;;;;5025762;28;20029;-75
2022/11/29 00:42:52;;;;;;;10.13;7.07;;;;;;;;;;5034914;28;20190;-75
2022/11/29 00:45:17;;;;;;;14.88;7.75;;;;;;;;;;5022936;28;20528;-74
2022/11/29 00:47:43;;;;;;;13.23;8.05;;;;;;;;;;5024239;28;20029;-74
2022/11/29 00:50:09;;;;;;;15.70;8.68;;;;;;;;;;5027738;28;20026;-74
2022/11/29 00:52:35;;;;;;;13.05;8.65;;;;;;;;;;5020933;28;20392;-74
2022/11/29 00:55:01;;;;;;;13.75;9.30;;;;;;;;;;5023585;28;20030;-75
2022/11/29 00:57:27;;;;;;;18.98;9.45;;;;;;;;;;5024470;28;20030;-74
2022/11/29 00:59:53;;;;;;;13.77;8.50;;;;;;;;;;5032544;28;20482;-75
2022/11/29 01:02:19;;;;;;;13.52;8.88;;;;;;;;;;5021530;28;20113;-76
2022/11/29 01:04:44;;;;;;;13.60;8.45;;;;;;;;;;5024916;28;20025;-75
2022/11/29 01:07:10;;;;;;;16.65;8.80;;;;;;;;;;5022196;28;20037;-74
2022/11/29 01:13:17;;;;;;;11.13;7.47;;;;;;;;;;5033544;28;20044;-76
2022/11/29 01:15:43;;;;;;;11.15;7.18;;;;;;;;;;5026329;28;20067;-75
2022/11/29 01:18:09;;;;;;;10.35;7.05;;;;;;;;;;5037390;28;20022;-76
2022/11/29 01:20:35;;;;;;;12.88;7.50;;;;;;;;;;5019300;28;20041;-76
2022/11/29 01:23:00;;;;;;;9.98;6.93;;;;;;;;;;5024518;28;20035;-75
2022/11/29 01:25:26;;;;;;;12.27;7.35;;;;;;;;;;5022257;28;20040;-75
2022/11/29 01:27:53;;;;;;;11.35;7.30;;;;;;;;;;5026606;28;20091;-75
2022/11/29 01:30:19;;;;;;;11.95;7.22;;;;;;;;;;5022478;28;20092;-75
2022/11/29 01:32:45;;;;;;;11.05;7.70;;;;;;;;;;5026917;28;20038;-75
2022/11/29 01:35:11;;;;;;;12.18;8.00;;;;;;;;;;5022640;28;20033;-75
2022/11/29 01:37:36;;;;;;;13.55;8.35;;;;;;;;;;5024035;28;20038;-75
2022/11/29 01:40:03;;;;;;;13.00;8.48;;;;;;;;;;5023170;28;20034;-75
2022/11/29 01:42:29;;;;;;;12.00;7.78;;;;;;;;;;5019437;28;20555;-74
2022/11/29 01:45:14;;;;;;;13.32;8.25;;;;;;;;;;5017508;28;20037;-74
2022/11/29 01:47:43;;;;;;;12.18;8.02;;;;;;;;;;5022106;28;20030;-76
2022/11/29 01:50:09;;;;;;;13.57;8.40;;;;;;;;;;5024806;28;20060;-74
2022/11/29 01:52:35;;;;;;;10.50;7.07;;;;;;;;;;5022011;28;20120;-75
2022/11/29 01:55:04;;;;;;;10.13;6.90;;;;;;;;;;5026955;28;20108;-75
2022/11/29 01:57:32;;;;;;;10.95;7.05;;;;;;;;;;5023671;28;20110;-75
2022/11/29 02:00:05;;;;;;;11.90;7.40;;;;;;;;;;5016335;28;20026;-74
2022/11/29 02:02:49;;;;;;;12.90;7.10;;;;;;;;;;5026022;28;20073;-75
2022/11/29 02:05:18;;;;;;;11.55;7.68;;;;;;;;;;5025605;28;20045;-75
2022/11/29 02:07:47;;;;;;;11.07;7.57;;;;;;;;;;5023386;28;20057;-75
2022/11/29 02:10:14;;;;;;;13.88;8.13;;;;;;;;;;5021367;28;20034;-74
2022/11/29 02:12:49;;;;;;;12.40;8.55;;;;;;;;;;5026160;28;20037;-75
2022/11/29 02:15:34;;;;;;;12.20;7.72;;;;;;;;;;5020877;28;20037;-75
2022/11/29 02:18:11;;;;;;;13.38;8.15;;;;;;;;;;5020981;28;20032;-75
2022/11/29 02:20:52;;;;;;;19.48;9.57;;;;;;;;;;5015888;28;20029;-75
2022/11/29 02:23:39;;;;;;;12.38;8.43;;;;;;;;;;5023682;28;20041;-75
2022/11/29 02:26:37;;;;;;;12.75;8.07;;;;;;;;;;5025973;28;20455;-75
2022/11/29 02:29:08;;;;;;;16.15;8.57;;;;;;;;;;5031522;28;20050;-75
2022/11/29 02:31:41;;;;;;;13.48;7.55;;;;;;;;;;5037322;28;20507;-75
2022/11/29 02:34:16;;;;;;;16.00;8.57;;;;;;;;;;5022516;28;20108;-74
2022/11/29 02:36:54;;;;;;;15.27;8.75;;;;;;;;;;5019548;28;20125;-75
2022/11/29 02:39:35;;;;;;;15.55;9.38;;;;;;;;;;5023515;28;20030;-76
2022/11/29 02:42:13;;;;;;;14.68;8.75;;;;;;;;;;5034269;28;20483;-76
2022/11/29 02:44:56;;;;;;;14.80;8.20;;;;;;;;;;5023888;28;20172;-76
2022/11/29 02:47:26;;;;;;;12.57;8.48;;;;;;;;;;5022694;28;20033;-74
2022/11/29 02:50:03;;;;;;;14.18;8.63;;;;;;;;;;5023716;28;20075;-76
2022/11/29 02:53:00;;;;;;;14.85;8.73;;;;;;;;;;5024193;28;20029;-76
2022/11/29 02:55:41;;;;;;;12.90;9.07;;;;;;;;;;5024230;28;20037;-76
2022/11/29 02:58:34;;;;;;;17.50;8.90;;;;;;;;;;5022196;28;20045;-76
2022/11/29 03:01:15;;;;;;;15.93;8.38;;;;;;;;;;5024080;28;20119;-75
2022/11/29 03:04:02;;;;;;;16.70;9.02;;;;;;;;;;5022745;28;20100;-74
2022/11/29 03:06:52;;;;;;;16.52;9.05;;;;;;;;;;5030632;28;20392;-75
2022/11/29 03:09:31;;;;;;;14.40;9.50;;;;;;;;;;5024729;28;20057;-75
2022/11/29 03:12:15;;;;;;;12.65;8.32;;;;;;;;;;5023471;28;20407;-76
2022/11/29 03:15:07;;;;;;;;;;;;;;;;;;5027639;28;20561;-74
2022/11/29 03:18:06;;;;;;;12.20;7.47;;;;;;;;;;5026006;28;20318;-75
2022/11/29 03:20:57;;;;;;;11.05;7.35;;;;;;;;;;5024081;28;20087;-74
2022/11/29 03:23:46;;;;;;;12.10;7.05;;;;;;;;;;5018865;28;20036;-75
2022/11/29 03:26:33;;;;;;;10.88;7.25;;;;;;;;;;5022528;28;20422;-75
2022/11/29 03:29:19;;;;;;;14.77;7.28;;;;;;;;;;5023508;28;20133;-76
2022/11/29 03:32:25;;;;;;;12.75;8.20;;;;;;;;;;5021298;28;20060;-75
2022/11/29 03:35:06;;;;;;;13.38;7.60;;;;;;;;;;5023447;28;20041;-75
2022/11/29 03:37:56;;;;;;;12.15;7.80;;;;;;;;;;5024329;28;20033;-75
2022/11/29 03:40:53;;;;;;;13.20;7.65;;;;;;;;;;5020893;28;20037;-75
2022/11/29 03:43:23;;;;;;;11.88;7.57;;;;;;;;;;5025681;28;20044;-75
2022/11/29 03:46:01;;;;;;;14.13;8.15;;;;;;;;;;5034243;28;20034;-75
2022/11/29 03:48:32;;;;;;;16.25;8.80;;;;;;;;;;5013073;28;20033;-74
2022/11/29 03:51:06;;;;;;;14.90;8.63;;;;;;;;;;5028340;28;20040;-75
2022/11/29 03:53:45;;;;;;;24.05;9.02;;;;;;;;;;5021240;28;20037;-74
2022/11/29 03:56:31;;;;;;;14.10;7.65;;;;;;;;;;5021984;28;20025;-75
2022/11/29 03:59:18;;;;;;;16.90;8.40;;;;;;;;;;5021872;28;20033;-75
2022/11/29 04:02:15;;;;;;;14.55;8.55;;;;;;;;;;5020887;28;20107;-76
2022/11/29 04:05:11;;;;;;;13.63;8.25;;;;;;;;;;5020263;28;20033;-75
2022/11/29 04:07:59;;;;;;;14.13;8.80;;;;;;;;;;5033116;28;20096;-75
2022/11/29 04:11:02;;;;;;;12.25;7.20;;;;;;;;;;5018181;28;20029;-75
2022/11/29 04:13:33;;;;;;;13.60;7.90;;;;;;;;;;5018187;28;20034;-75
2022/11/29 04:16:25;;;;;;;12.43;8.02;;;;;;;;;;5027427;28;20085;-75
2022/11/29 04:19:00;;;;;;;15.77;8.18;;;;;;;;;;5027370;28;20069;-75
2022/11/29 04:22:04;;;;;;;15.05;8.98;;;;;;;;;;5017962;28;20045;-75
2022/11/29 04:24:30;;;;;;;18.23;8.18;;;;;;;;;;5018719;28;20029;-75
2022/11/29 04:27:33;;;;;;;12.90;8.13;;;;;;;;;;5022063;28;20095;-74
2022/11/29 04:30:10;;;;;;;15.32;8.60;;;;;;;;;;5017470;28;20109;-75
2022/11/29 04:32:57;;;;;;;13.40;8.30;;;;;;;;;;5034022;28;20041;-74
2022/11/29 04:35:50;;;;;;;11.98;8.38;;;;;;;;;;5020113;28;20399;-75
2022/11/29 04:38:28;;;;;;;17.58;8.10;;;;;;;;;;5025663;28;20050;-75
2022/11/29 04:41:13;;;;;;;14.02;7.53;;;;;;;;;;5020850;28;20064;-75
2022/11/29 04:44:23;;;;;;;11.23;7.40;;;;;;;;;;5026338;28;20036;-75
2022/11/29 04:47:22;;;;;;;14.32;7.93;;;;;;;;;;5037899;28;20048;-75
2022/11/29 04:50:10;;;;;;;11.70;7.63;;;;;;;;;;5014622;28;20045;-75
2022/11/29 04:52:57;;;;;;;13.45;7.45;;;;;;;;;;5020308;28;20091;-75
2022/11/29 04:55:51;;;;;;;13.15;7.90;;;;;;;;;;5025251;28;20112;-75
2022/11/29 04:58:38;;;;;;;11.38;7.85;;;;;;;;;;5029733;28;20088;-76
2022/11/29 05:01:34;;;;;;;14.55;7.63;;;;;;;;;;5021860;28;20025;-76
2022/11/29 05:04:16;;;;;;;14.18;7.97;;;;;;;;;;5029656;28;20026;-74
2022/11/29 05:07:06;;;;;;;11.80;7.80;;;;;;;;;;5025579;28;20037;-75
2022/11/29 05:10:13;;;;;;;17.38;8.38;;;;;;;;;;5023956;28;20381;-75
2022/11/29 05:12:47;;;;;;;17.52;9.95;;;;;;;;;;5014391;28;20140;-75
2022/11/29 05:15:15;;;;;;;;;;;;;;;;;;5028626;28;20033;-74
2022/11/29 05:18:23;;;;;;;14.15;8.73;;;;;;;;;;5022834;28;19975;-76
2022/11/29 05:21:05;;;;;;;12.00;8.13;;;;;;;;;;5016302;28;20045;-75
2022/11/29 05:23:55;;;;;;;13.05;7.55;;;;;;;;;;5020369;28;20551;-75
2022/11/29 05:26:37;;;;;;;13.82;8.35;;;;;;;;;;5024729;28;20034;-73
2022/11/29 05:29:03;;;;;;;14.80;8.90;;;;;;;;;;5023497;28;20045;-75
2022/11/29 05:31:58;;;;;;;17.00;8.82;;;;;;;;;;5020799;28;20084;-74
2022/11/29 05:34:38;;;;;;;14.10;8.65;;;;;;;;;;5028601;28;20514;-74
2022/11/29 05:37:27;;;;;;;12.80;7.43;;;;;;;;;;5024330;28;20121;-74
2022/11/29 05:40:08;;;;;;;16.08;8.77;;;;;;;;;;5024203;28;20502;-75
2022/11/29 05:42:45;;;;;;;12.68;8.10;;;;;;;;;;5024733;28;20120;-73
2022/11/29 05:45:29;;;;;;;16.30;8.55;;;;;;;;;;5023592;28;20120;-75
2022/11/29 05:48:00;;;;;;;;;;;;;;;;;;5043336;28;20124;-76
2022/11/29 05:50:34;;;;;;;14.23;8.15;;;;;;;;;;5020342;28;20377;-75
2022/11/29 05:53:33;;;;;;;13.02;7.22;;;;;;;;;;5035299;28;20487;-75
2022/11/29 05:56:22;;;;;;;12.70;7.23;;;;;;;;;;5022234;28;20092;-75
2022/11/29 05:58:55;;;;;;;11.40;7.07;;;;;;;;;;5024897;28;20041;-75
2022/11/29 06:01:23;;;;;;;12.15;6.85;;;;;;;;;;5030089;28;20033;-75
2022/11/29 06:04:27;;;;;;;11.60;6.97;;;;;;;;;;5019795;28;20029;-75
2022/11/29 06:07:16;;;;;;;12.68;7.97;;;;;;;;;;5022919;28;20049;-74
2022/11/29 06:09:47;;;;;;;12.32;7.57;;;;;;;;;;5024203;28;20175;-76
2022/11/29 06:12:20;;;;;;;13.65;7.75;;;;;;;;;;5025561;28;20084;-77
2022/11/29 06:15:04;;;;;;;15.13;7.88;;;;;;;;;;5030148;28;20035;-77
2022/11/29 06:17:52;;;;;;;12.02;7.50;;;;;;;;;;5010493;28;20088;-76
2022/11/29 06:20:30;;;;;;;17.95;8.70;;;;;;;;;;5046436;28;20056;-76
2022/11/29 06:23:27;;;;;;;14.45;8.50;;;;;;;;;;5031430;28;20033;-77
2022/11/29 06:26:25;;;;;;;14.48;7.93;;;;;;;;;;5030941;28;20025;-78
2022/11/29 06:29:12;;;;;;;10.95;7.53;;;;;;;;;;5012564;28;20049;-78
2022/11/29 06:31:49;;;;;;;12.32;7.65;;;;;;;;;;5012757;28;20037;-78
2022/11/29 06:34:41;;;;;;;11.60;7.43;;;;;;;;;;5028220;28;20083;-76
2022/11/29 06:37:39;;;;;;;20.88;8.35;;;;;;;;;;5030551;28;20029;-77
2022/11/29 06:40:09;;;;;;;15.52;7.60;;;;;;;;;;5022170;28;20110;-76
2022/11/29 06:42:35;;;;;;;12.88;7.63;;;;;;;;;;5010852;28;20045;-76
2022/11/29 06:45:02;;;;;;;16.23;8.00;;;;;;;;;;5009033;28;20029;-75
2022/11/29 06:47:54;;;;;;;16.67;8.07;;;;;;;;;;5014123;28;20056;-77
2022/11/29 06:54:00;;;;;;;13.57;7.63;;;;;;;;;;5016344;28;20056;-78
2022/11/29 06:56:41;;;;;;;9.07;6.22;;;;;;;;;;5025764;28;20078;-76
2022/11/29 06:59:24;;;;;;;10.68;7.32;;;;;;;;;;5025064;28;20029;-77
2022/11/29 07:02:01;;;;;;;11.20;6.93;;;;;;;;;;5028108;28;20033;-77
2022/11/29 07:04:47;;;;;;;18.15;8.85;;;;;;;;;;5029693;28;20211;-76
2022/11/29 07:07:22;;;;;;;20.33;8.57;;;;;;;;;;5028642;28;20037;-76
2022/11/29 07:09:57;;;;;;;15.07;8.95;;;;;;;;;;5009556;28;20034;-77
2022/11/29 07:12:23;;;;;;;15.10;8.85;;;;;;;;;;4998305;28;20029;-77
2022/11/29 07:14:49;;;;;;;18.70;9.10;;;;;;;;;;5027938;28;20503;-75
2022/11/29 07:17:38;;;;;;;11.60;7.60;;;;;;;;;;4995574;28;20033;-78
2022/11/29 07:20:48;;;;;;;16.15;7.57;;;;;;;;;;5000631;28;20389;-76
2022/11/29 07:24:01;;;;;;;12.05;7.95;;;;;;;;;;5009910;28;20068;-76
2022/11/29 07:26:56;;;;;;;12.02;7.85;;;;;;;;;;5012025;28;20041;-77
2022/11/29 07:29:37;;;;;;;16.63;8.20;;;;;;;;;;5017251;28;20052;-75
2022/11/29 07:32:28;;;;;;;15.52;8.45;;;;;;;;;;5030523;28;20060;-77
2022/11/29 07:35:18;;;;;;;12.95;8.20;;;;;;;;;;5045419;28;20043;-76
2022/11/29 07:38:08;;;;;;;14.32;7.85;;;;;;;;;;5033402;28;20041;-76
2022/11/29 07:40:54;;;;;;;14.73;8.93;;;;;;;;;;5029859;28;20538;-76
2022/11/29 07:43:52;;;;;;;16.27;8.13;;;;;;;;;;5030057;28;20064;-77
2022/11/29 07:46:18;;;;;;;14.20;8.50;;;;;;;;;;5029227;28;20026;-79
2022/11/29 07:48:44;;;;;;;14.50;7.82;;;;;;;;;;5030472;28;20086;-79
2022/11/29 07:51:11;;;;;;;30.40;13.45;;;;;;;;;;5015435;28;20044;-79
2022/11/29 07:53:41;;;;;;;29.65;15.02;;;;;;;;;;5035331;28;20051;-76
2022/11/29 07:56:11;;;;;;;19.80;9.60;;;;;;;;;;5042390;28;20044;-73
2022/11/29 07:58:38;;;;;;;19.25;10.80;;;;;;;;;;5037349;28;20040;-75
2022/11/29 08:01:04;;;;;;;15.77;8.85;;;;;;;;;;5033625;28;20024;-77
2022/11/29 08:03:31;;;;;;;21.73;11.50;;;;;;;;;;5032487;28;20091;-75
2022/11/29 08:05:57;;;;;;;27.48;11.00;;;;;;;;;;5032573;28;20056;-77
2022/11/29 08:08:23;;;;;;;22.45;11.50;;;;;;;;;;5029836;28;20041;-77
2022/11/29 08:10:49;;;;;;;27.63;11.95;;;;;;;;;;5030380;28;20483;-75
2022/11/29 08:13:18;;;;;;;19.08;11.10;;;;;;;;;;5012857;28;20052;-76
2022/11/29 08:15:45;;;;;;;22.35;12.77;;;;;;;;;;5030055;28;20028;-76
2022/11/29 08:18:12;;;;;;;22.60;11.32;;;;;;;;;;5030866;28;20029;-76
2022/11/29 08:20:40;;;;;;;21.55;12.00;;;;;;;;;;5029712;28;20057;-76
2022/11/29 08:23:08;;;;;;;18.27;11.00;;;;;;;;;;5028087;28;20230;-73
2022/11/29 08:25:34;;;;;;;24.92;12.75;;;;;;;;;;5029063;28;20064;-73
2022/11/29 08:28:04;;;;;;;16.67;10.60;;;;;;;;;;5004685;28;20416;-72
2022/11/29 08:30:30;;;;;;;16.35;10.10;;;;;;;;;;5026466;28;20046;-73
2022/11/29 08:32:57;;;;;;;16.88;11.15;;;;;;;;;;4997660;28;20041;-75
2022/11/29 08:35:23;;;;;;;15.82;9.25;;;;;;;;;;5027212;28;20033;-75
2022/11/29 08:37:49;;;;;;;23.77;10.70;;;;;;;;;;5022035;28;20029;-75
2022/11/29 08:40:17;;;;;;;17.33;9.77;;;;;;;;;;5021066;28;20037;-76
2022/11/29 08:42:43;;;;;;;21.90;10.30;;;;;;;;;;5034346;28;20025;-78
2022/11/29 08:45:10;;;;;;;18.83;11.25;;;;;;;;;;5034582;28;20422;-75
2022/11/29 08:47:37;;;;;;;18.02;10.18;;;;;;;;;;5014851;28;20606;-77
2022/11/29 08:50:16;;;;;;;17.08;9.85;;;;;;;;;;5020432;28;20038;-76
2022/11/29 08:55:41;;;;;;;13.07;8.07;;;;;;;;;;5032692;28;20518;-79
2022/11/29 08:58:11;;;;;;;11.98;7.22;;;;;;;;;;5025791;28;20041;-78
2022/11/29 09:00:38;;;;;;;12.90;7.85;;;;;;;;;;5012293;28;20492;-77
2022/11/29 09:05:52;;;;;;;15.43;7.72;;;;;;;;;;5015245;28;20061;-78
2022/11/29 09:08:18;;;;;;;16.33;8.63;;;;;;;;;;5026751;28;20467;-78
2022/11/29 09:10:46;;;;;;;15.80;8.73;;;;;;;;;;5031253;28;20045;-77
2022/11/29 09:13:12;;;;;;;13.48;7.80;;;;;;;;;;5024468;28;20506;-77
2022/11/29 09:15:40;;;;;;;12.02;7.75;;;;;;;;;;5032566;28;20037;-77
2022/11/29 09:18:07;;;;;;;13.65;7.97;;;;;;;;;;5033147;28;20577;-75
2022/11/29 09:20:34;;;;;;;11.85;7.15;;;;;;;;;;5022994;28;20377;-76
2022/11/29 09:23:01;;;;;;;14.38;8.32;;;;;;;;;;5012726;28;20033;-75
2022/11/29 09:25:30;;;;;;;15.15;8.00;;;;;;;;;;5012299;28;20563;-77
2022/11/29 09:28:00;;;;;;;15.13;7.45;;;;;;;;;;5012759;28;20170;-76
2022/11/29 09:30:29;;;;;;;15.45;7.43;;;;;;;;;;5013045;28;20037;-76
2022/11/29 09:32:55;;;;;;;16.15;7.72;;;;;;;;;;5013419;28;20049;-75
2022/11/29 09:35:21;;;;;;;15.18;7.07;;;;;;;;;;5020855;28;20483;-74
2022/11/29 09:37:46;;;;;;;16.75;8.05;;;;;;;;;;5032428;28;20095;-74
2022/11/29 09:40:24;;;;;;;13.75;7.40;;;;;;;;;;5032725;28;20029;-75
2022/11/29 09:43:19;;;;;;;11.93;6.80;;;;;;;;;;5033422;28;20040;-76
2022/11/29 09:45:48;;;;;;;10.77;6.45;;;;;;;;;;4996170;28;20139;-77
2022/11/29 09:48:20;;;;;;;11.40;5.97;;;;;;;;;;5013052;28;20109;-77
2022/11/29 09:51:28;;;;;;;11.65;6.88;;;;;;;;;;5025141;28;20509;-77
2022/11/29 09:54:00;;;;;;;13.48;6.95;;;;;;;;;;5015600;28;20061;-76
2022/11/29 09:56:41;;;;;;;12.25;7.50;;;;;;;;;;5032456;28;20034;-76
2022/11/29 09:59:30;;;;;;;12.60;6.72;;;;;;;;;;5031101;28;20082;-76
2022/11/29 10:02:03;;;;;;;11.77;5.47;;;;;;;;;;5030617;28;20575;-76
2022/11/29 10:04:38;;;;;;;21.77;11.60;;;;;;;;;;5051310;28;20029;-75
2022/11/29 10:07:18;;;;;;;14.02;7.03;;;;;;;;;;5043418;28;20510;-76
2022/11/29 10:09:50;;;;;;;14.65;6.75;;;;;;;;;;5032582;28;20100;-76
2022/11/29 10:12:43;;;;;;;10.30;5.80;;;;;;;;;;5030399;28;20446;-74
2022/11/29 10:15:19;;;;;;;14.90;7.72;;;;;;;;;;5034789;28;20120;-75
2022/11/29 10:18:20;;;;;;;12.90;7.22;;;;;;;;;;5049719;28;20025;-75
2022/11/29 10:20:51;;;;;;;10.55;6.43;;;;;;;;;;5051612;28;20037;-74
2022/11/29 10:23:37;;;;;;;11.38;6.30;;;;;;;;;;5032516;28;20450;-75
2022/11/29 10:26:07;;;;;;;9.02;5.25;;;;;;;;;;5030919;28;20044;-75
2022/11/29 10:28:35;;;;;;;9.98;5.72;;;;;;;;;;5031184;28;20122;-75
2022/11/29 10:31:18;;;;;;;14.30;6.60;;;;;;;;;;5032343;28;20116;-75
2022/11/29 10:33:45;;;;;;;11.37;5.97;;;;;;;;;;5031288;28;20377;-76
2022/11/29 10:36:23;;;;;;;13.73;6.80;;;;;;;;;;5047131;28;20029;-76
2022/11/29 10:38:50;;;;;;;8.52;5.93;;;;;;;;;;5050769;28;20478;-73
2022/11/29 10:41:21;;;;;;;10.10;6.18;;;;;;;;;;5033872;28;20490;-74
2022/11/29 10:43:48;;;;;;;10.80;6.88;;;;;;;;;;5051613;28;20041;-75
2022/11/29 10:46:32;;;;;;;13.48;7.72;;;;;;;;;;5033749;28;20106;-76
2022/11/29 10:49:01;;;;;;;16.67;7.13;;;;;;;;;;5050311;28;20487;-74
2022/11/29 10:51:28;;;;;;;14.25;6.15;;;;;;;;;;5049828;28;20037;-75
2022/11/29 10:54:04;;;;;;;13.00;5.75;;;;;;;;;;5051162;28;20060;-75
2022/11/29 10:56:36;;;;;;;11.50;6.47;;;;;;;;;;5051314;28;20056;-75
2022/11/29 10:59:08;;;;;;;16.67;7.25;;;;;;;;;;5050131;28;20033;-76
2022/11/29 11:01:41;;;;;;;14.30;6.18;;;;;;;;;;5050232;28;20032;-75
2022/11/29 11:04:14;;;;;;;9.55;6.05;;;;;;;;;;5049924;28;20037;-74
2022/11/29 11:06:59;;;;;;;13.07;6.45;;;;;;;;;;5048811;28;20418;-77
2022/11/29 11:10:01;;;;;;;18.85;8.00;;;;;;;;;;5051003;28;20124;-76
2022/11/29 11:12:31;;;;;;;12.38;6.20;;;;;;;;;;5016160;28;20041;-76
2022/11/29 11:15:28;;;;;;;12.73;6.10;;;;;;;;;;5055125;28;20071;-75
2022/11/29 11:18:03;;;;;;;17.50;7.38;;;;;;;;;;5048086;28;20040;-75
2022/11/29 11:20:35;;;;;;;8.75;5.43;;;;;;;;;;5050392;28;20092;-75
2022/11/29 11:23:02;;;;;;;16.35;6.30;;;;;;;;;;5028602;28;20037;-75
2022/11/29 11:25:36;;;;;;;9.45;5.28;;;;;;;;;;5042353;28;20382;-77
2022/11/29 11:28:25;;;;;;;12.07;5.68;;;;;;;;;;5050588;28;20057;-74
2022/11/29 11:30:56;;;;;;;17.23;6.68;;;;;;;;;;5050765;28;20041;-76
2022/11/29 11:33:30;;;;;;;11.40;5.90;;;;;;;;;;5038239;28;20112;-75
2022/11/29 11:36:19;;;;;;;9.10;5.88;;;;;;;;;;5045564;28;20062;-75
2022/11/29 11:39:08;;;;;;;16.70;7.55;;;;;;;;;;5039703;28;20060;-74
2022/11/29 11:44:39;;;;;;;11.73;6.32;;;;;;;;;;5050760;28;20037;-78
2022/11/29 11:47:14;;;;;;;14.17;7.50;;;;;;;;;;5040718;28;20104;-76
2022/11/29 11:50:23;;;;;;;11.98;7.45;;;;;;;;;;5044316;28;20124;-76
2022/11/29 11:52:52;;;;;;;21.75;7.72;;;;;;;;;;5028099;28;20080;-76
2022/11/29 11:55:26;;;;;;;9.70;6.22;;;;;;;;;;5032449;28;20096;-76
2022/11/29 11:58:10;;;;;;;12.35;6.55;;;;;;;;;;5029896;28;20033;-75
2022/11/29 12:00:47;;;;;;;;;;;;;;;;;;5049033;28;20036;-75
2022/11/29 12:03:49;;;;;;;11.77;6.38;;;;;;;;;;5053351;28;20003;-77
2022/11/29 12:06:42;;;;;;;15.48;6.50;;;;;;;;;;5027125;28;20060;-77
2022/11/29 12:09:51;;;;;;;18.42;6.93;;;;;;;;;;5031560;28;20030;-76
2022/11/29 12:12:23;;;;;;;14.98;7.53;;;;;;;;;;5028452;28;20475;-74
2022/11/29 12:14:56;;;;;;;13.00;7.47;;;;;;;;;;5032981;28;20045;-76
2022/11/29 12:17:38;;;;;;;19.80;7.07;;;;;;;;;;5049183;28;20041;-75
2022/11/29 12:20:22;;;;;;;13.38;5.63;;;;;;;;;;5052627;28;20029;-73
2022/11/29 12:23:10;;;;;;;11.32;5.22;;;;;;;;;;5052949;28;20044;-76
2022/11/29 12:25:47;;;;;;;8.23;4.90;;;;;;;;;;5053360;28;20033;-73
2022/11/29 12:28:19;;;;;;;8.32;5.35;;;;;;;;;;5052142;28;20080;-77
2022/11/29 12:31:21;;;;;;;10.43;5.38;;;;;;;;;;5034190;28;20091;-76
2022/11/29 12:34:05;;;;;;;12.27;5.60;;;;;;;;;;5034999;28;20116;-74
2022/11/29 12:37:09;;;;;;;8.98;5.47;;;;;;;;;;5057775;28;20116;-76
2022/11/29 12:40:03;;;;;;;9.63;5.82;;;;;;;;;;5009113;28;20037;-76
2022/11/29 12:43:09;;;;;;;9.75;5.93;;;;;;;;;;5057841;28;20032;-76
2022/11/29 12:46:32;;;;;;;10.40;5.93;;;;;;;;;;5054217;28;20043;-73
2022/11/29 12:49:13;;;;;;;9.32;5.20;;;;;;;;;;5032873;28;20029;-78
2022/11/29 12:51:51;;;;;;;11.18;6.63;;;;;;;;;;5030374;28;20518;-77
2022/11/29 12:54:45;;;;;;;14.05;7.30;;;;;;;;;;5039609;28;20115;-75
2022/11/29 12:57:50;;;;;;;9.23;5.35;;;;;;;;;;5034240;28;20056;-75
2022/11/29 13:00:20;;;;;;;20.45;5.60;;;;;;;;;;5010805;28;20049;-75
2022/11/29 13:03:11;;;;;;;24.58;6.25;;;;;;;;;;5043521;28;20033;-76
2022/11/29 13:05:54;;;;;;;13.38;5.93;;;;;;;;;;5052578;28;20071;-76
2022/11/29 13:08:46;;;;;;;9.88;5.43;;;;;;;;;;5049610;28;20513;-75
2022/11/29 13:11:21;;;;;;;10.80;7.00;;;;;;;;;;5051811;28;20037;-76
2022/11/29 13:14:03;;;;;;;11.48;6.65;;;;;;;;;;5067881;28;20046;-76
2022/11/29 13:16:38;;;;;;;13.82;7.68;;;;;;;;;;5068460;28;20075;-77
2022/11/29 13:19:22;;;;;;;14.38;7.32;;;;;;;;;;5053369;28;20041;-74
2022/11/29 13:22:07;;;;;;;11.45;8.27;;;;;;;;;;5033326;28;20112;-75
2022/11/29 13:24:44;;;;;;;16.45;8.32;;;;;;;;;;5032019;28;20040;-75
2022/11/29 13:27:39;;;;;;;16.35;9.90;;;;;;;;;;5032433;28;20111;-75
2022/11/29 13:30:05;;;;;;;16.33;10.20;;;;;;;;;;5033326;28;20455;-76
2022/11/29 13:32:42;;;;;;;18.27;11.02;;;;;;;;;;5036037;28;20155;-77
2022/11/29 13:35:20;;;;;;;15.48;9.18;;;;;;;;;;5046155;28;20122;-76
2022/11/29 13:38:00;;;;;;;11.48;7.60;;;;;;;;;;5049166;28;20028;-77
2022/11/29 13:40:36;;;;;;;13.00;7.57;;;;;;;;;;5067814;28;20048;-76
2022/11/29 13:43:02;;;;;;;16.95;8.82;;;;;;;;;;5037077;28;20051;-76
2022/11/29 13:45:51;;;;;;;27.08;9.75;;;;;;;;;;5026840;28;20029;-75
2022/11/29 13:48:27;;;;;;;15.02;8.68;;;;;;;;;;5052423;28;20033;-75
2022/11/29 13:50:55;;;;;;;14.82;8.57;;;;;;;;;;5030227;28;20033;-75
2022/11/29 13:53:24;;;;;;;13.77;8.98;;;;;;;;;;5051563;28;20032;-74
2022/11/29 13:56:00;;;;;;;18.55;9.15;;;;;;;;;;5051569;28;20037;-72
2022/11/29 13:58:34;;;;;;;15.48;8.68;;;;;;;;;;5053069;28;20060;-75
2022/11/29 14:01:01;;;;;;;14.23;8.30;;;;;;;;;;5052676;28;20040;-75
2022/11/29 14:03:27;;;;;;;12.68;8.23;;;;;;;;;;5052359;28;20028;-74
2022/11/29 14:06:39;;;;;;;16.05;8.70;;;;;;;;;;5051432;28;20086;-76
2022/11/29 14:09:14;;;;;;;19.80;10.00;;;;;;;;;;5039132;28;20742;-76
2022/11/29 14:11:47;;;;;;;17.85;10.48;;;;;;;;;;5015446;28;20041;-75
2022/11/29 14:14:30;;;;;;;15.52;9.70;;;;;;;;;;5032559;28;20033;-77
2022/11/29 14:17:05;;;;;;;18.55;10.75;;;;;;;;;;5066940;28;20044;-76
2022/11/29 14:19:34;;;;;;;20.77;12.93;;;;;;;;;;5051323;28;20047;-76
2022/11/29 14:22:08;;;;;;;18.42;10.13;;;;;;;;;;5051439;28;20032;-76
2022/11/29 14:24:34;;;;;;;14.68;9.20;;;;;;;;;;5052026;28;20033;-76
2022/11/29 14:27:08;;;;;;;16.02;10.40;;;;;;;;;;5051799;28;20106;-76
2022/11/29 14:29:49;;;;;;;18.35;10.90;;;;;;;;;;5050630;28;20099;-76
2022/11/29 14:32:26;;;;;;;18.48;10.25;;;;;;;;;;5051471;28;20479;-75
2022/11/29 14:35:00;;;;;;;15.25;9.07;;;;;;;;;;5045893;28;20044;-74
2022/11/29 14:37:54;;;;;;;14.85;10.15;;;;;;;;;;5030635;28;20313;-76
2022/11/29 14:40:43;;;;;;;18.20;11.38;;;;;;;;;;5032461;28;20025;-75
2022/11/29 14:43:34;;;;;;;15.27;9.55;;;;;;;;;;5032598;28;20051;-76
2022/11/29 14:46:14;;;;;;;13.35;9.02;;;;;;;;;;5033409;28;20065;-75
2022/11/29 14:48:46;;;;;;;14.38;9.13;;;;;;;;;;5030352;28;20487;-75
2022/11/29 14:51:15;;;;;;;16.33;10.05;;;;;;;;;;5046300;28;20064;-77
2022/11/29 14:53:43;;;;;;;19.38;10.23;;;;;;;;;;5051872;28;20386;-75
2022/11/29 14:56:28;;;;;;;21.08;10.75;;;;;;;;;;5049608;28;20419;-75
2022/11/29 14:59:31;;;;;;;20.02;11.80;;;;;;;;;;5051138;28;20104;-76
2022/11/29 15:02:07;;;;;;;25.50;13.95;;;;;;;;;;5047534;28;20036;-72
2022/11/29 15:04:35;;;;;;;22.65;13.25;;;;;;;;;;5048747;28;20037;-76
2022/11/29 15:07:02;;;;;;;18.35;11.82;;;;;;;;;;5063896;28;20040;-78
2022/11/29 15:09:31;;;;;;;20.73;12.50;;;;;;;;;;5051567;28;20467;-78
2022/11/29 15:12:07;;;;;;;24.83;12.60;;;;;;;;;;5050398;28;20402;-78
2022/11/29 15:15:06;;;;;;;19.52;12.60;;;;;;;;;;5053875;28;20045;-78
2022/11/29 15:17:50;;;;;;;22.50;13.10;;;;;;;;;;5052543;28;20514;-76
2022/11/29 15:20:38;;;;;;;17.77;12.07;;;;;;;;;;5050742;28;20100;-78
2022/11/29 15:23:12;;;;;;;23.77;13.38;;;;;;;;;;5048811;28;20494;-77
2022/11/29 15:25:49;;;;;;;23.73;14.05;;;;;;;;;;5056495;28;20097;-80
2022/11/29 15:28:26;;;;;;;21.45;12.63;;;;;;;;;;5055272;28;20467;-79
2022/11/29 15:31:07;;;;;;;18.75;10.93;;;;;;;;;;5044834;28;20049;-78
2022/11/29 15:33:39;;;;;;;21.08;12.60;;;;;;;;;;5058321;28;20043;-79
2022/11/29 15:36:09;;;;;;;21.55;12.40;;;;;;;;;;5059420;28;20043;-77
2022/11/29 15:38:44;;;;;;;22.98;13.07;;;;;;;;;;5053040;28;20041;-80
2022/11/29 15:41:27;;;;;;;22.23;13.07;;;;;;;;;;5058996;28;20124;-81
2022/11/29 15:43:57;;;;;;;23.97;13.33;;;;;;;;;;5052167;28;20033;-78
2022/11/29 15:46:25;;;;;;;21.50;13.45;;;;;;;;;;5051821;28;20091;-80
2022/11/29 15:48:52;;;;;;;24.33;14.43;;;;;;;;;;5056535;28;20110;-80